Latest Weather Observations for Cunderdin Airport

IDW60801

Issued at 10:32 pm WST Thursday 26 May 2016 (issued every 30 minutes, with the page automatically refreshed every 10 minutes)

About weather observations | Map of weather stations | Latest weather observations for WA | Other Formats
Station Details ID: 010286 Name: CUNDERDIN AIRFIELD Lat: -31.62 Lon: 117.22 Height: 216.7 m
Data from the previous 72 hours. | See also: Recent months at Cunderdin Airport
Date/Time
WST
Temp
°C
App
Temp
°C
Dew
Point
Rel
Hum
%
Delta-T
°C
Wind Press
QNH
hPa
Press
MSL
hPa
Rain
since 9 am
mm
Dir
 
Spd
km/h
Gust
km/h
Spd
kts
Gust
kts
26/10:30pm 8.7 8.3 8.1 96 0.3 CALM 0 0 0 0 1023.6 1023.4 0.0
26/10:00pm 9.3 9.0 8.5 95 0.4 CALM 0 0 0 0 1023.5 1023.3 0.0
26/09:30pm 9.6 9.3 8.8 95 0.4 CALM 0 0 0 0 1023.1 1022.9 0.0
26/09:00pm 10.1 9.2 9.2 94 0.4 W 4 7 2 4 1023.0 1022.8 0.0
26/08:30pm 10.8 9.5 9.9 94 0.5 W 7 7 4 4 1022.9 1022.7 0.0
26/08:00pm 11.1 9.4 10.0 93 0.6 W 9 11 5 6 1022.8 1022.6 0.0
26/07:30pm 11.4 10.2 10.3 93 0.6 W 7 9 4 5 1022.2 1022.0 0.0
26/07:00pm 12.3 12.5 10.7 90 0.8 CALM 0 0 0 0 1021.9 1021.7 0.0
26/06:30pm 12.9 13.4 11.5 91 0.8 CALM 0 6 0 3 1021.8 1021.6 0.0
26/06:00pm 13.5 12.8 11.4 87 1.1 SW 6 7 3 4 1021.3 1021.0 0.0
26/05:30pm 14.1 13.4 11.4 84 1.5 SSW 6 7 3 4 1020.8 1020.5 0.0
26/05:00pm 15.0 13.7 11.2 78 2.0 SSW 9 13 5 7 1020.4 1020.1 0.0
26/04:30pm 15.3 14.1 11.7 79 2.0 SW 9 13 5 7 1020.4 1020.1 0.0
26/04:00pm 15.6 14.1 11.8 78 2.1 SSW 11 15 6 8 1020.2 1019.9 0.0
26/03:30pm 16.2 13.7 12.4 78 2.1 S 17 20 9 11 1020.1 1019.8 0.0
26/03:00pm 17.0 14.9 12.3 74 2.6 WSW 15 20 8 11 1019.6 1019.3 0.0
26/02:30pm 15.8 13.9 11.8 77 2.2 W 13 17 7 9 1019.3 1019.0 0.0
26/02:00pm 15.1 11.8 11.5 79 1.9 W 20 24 11 13 1019.4 1019.1 0.0
26/01:30pm 15.3 12.2 12.1 81 1.8 WSW 20 32 11 17 1019.3 1019.0 0.0
26/01:00pm 17.3 15.5 12.0 71 2.9 W 13 20 7 11 1018.9 1018.7 0.0
26/12:30pm 16.6 14.0 12.0 74 2.5 WSW 17 22 9 12 1019.0 1018.8 0.0
26/12:00pm 16.7 13.7 12.0 74 2.6 SW 19 24 10 13 1018.5 1018.3 0.0
26/11:30am 16.4 14.7 12.4 77 2.2 WSW 13 17 7 9 1019.3 1019.0 0.0
26/11:00am 16.5 14.5 12.7 78 2.1 WSW 15 22 8 12 1019.3 1019.0 0.0
26/10:30am 15.4 13.4 12.7 84 1.5 W 15 24 8 13 1018.7 1018.5 0.0
26/10:00am 15.2 13.3 13.1 87 1.2 WNW 15 19 8 10 1018.7 1018.5 0.0
26/09:30am 14.0 12.4 12.7 92 0.7 WNW 13 17 7 9 1018.4 1018.2 0.0
26/09:00am 13.1 11.0 12.3 95 0.4 NW 15 20 8 11 1018.2 1018.0 0.2
26/08:30am 12.3 10.4 11.8 97 0.3 NW 13 17 7 9 1017.6 1017.4 0.2
26/08:00am 11.5 10.5 11.0 97 0.3 W 7 9 4 5 1017.3 1017.0 0.2
26/07:30am 11.1 9.6 10.5 96 0.3 WNW 9 11 5 6 1016.6 1016.3 0.2
26/07:00am 11.4 8.8 10.8 96 0.3 NNW 15 19 8 10 1016.4 1016.1 0.2
26/06:30am 11.7 9.2 11.1 96 0.3 NNW 15 17 8 9 1015.9 1015.6 0.2
26/06:00am 11.8 9.3 11.2 96 0.3 NNW 15 19 8 10 1015.3 1015.0 0.2
26/05:30am 12.1 10.1 11.6 97 0.3 NNW 13 17 7 9 1015.5 1015.2 0.2
26/05:00am 11.9 10.2 11.3 96 0.3 WNW 11 13 6 7 1015.0 1014.7 0.2
26/04:30am 12.0 10.4 11.4 96 0.3 W 11 13 6 7 1015.0 1014.7 0.2
26/04:00am 11.8 10.0 11.0 95 0.4 WNW 11 13 6 7 1014.6 1014.3 0.2
26/03:30am 11.6 9.8 10.8 95 0.4 NW 11 13 6 7 1014.3 1014.1 0.2
26/03:00am 11.8 9.6 10.9 94 0.5 WNW 13 15 7 8 1014.2 1014.0 0.2
26/02:30am 11.7 9.9 10.8 94 0.5 NW 11 15 6 8 1013.9 1013.7 0.2
26/02:00am 11.7 9.2 11.1 96 0.3 NNW 15 19 8 10 1013.7 1013.5 0.2
26/01:30am 10.8 8.8 10.2 96 0.3 WNW 11 15 6 8 1013.6 1013.4 0.2
26/01:00am 10.6 9.3 9.8 95 0.4 NW 7 9 4 5 1013.5 1013.3 0.2
26/12:30am 10.9 8.9 10.1 95 0.4 NNW 11 15 6 8 1013.5 1013.3 0.2
26/12:00am 11.0 9.1 10.5 97 0.3 NNW 11 15 6 8 1014.0 1013.8 0.2
 
Date/Time
WST
Temp
°C
App
Temp
°C
Dew
Point
Rel
Hum
%
Delta-T
°C
Wind Press
QNH
hPa
Press
MSL
hPa
Rain
since 9 am
mm
Dir
 
Spd
km/h
Gust
km/h
Spd
kts
Gust
kts
25/11:30pm 10.5 8.8 10.0 97 0.3 WNW 9 11 5 6 1014.5 1014.2 0.2
25/11:00pm 10.3 9.5 9.7 96 0.3 SW 4 9 2 5 1014.3 1014.1 0.2
25/10:30pm 9.8 9.6 9.0 95 0.4 CALM 0 0 0 0 1013.6 1013.4 0.2
25/10:00pm 10.5 8.4 9.6 94 0.5 N 11 13 6 7 1014.1 1013.9 0.0
25/09:30pm 11.1 8.7 10.2 94 0.5 NNW 13 17 7 9 1014.1 1013.9 0.0
25/09:00pm 10.3 8.1 9.5 95 0.4 NW 11 13 6 7 1014.3 1014.1 0.0
25/08:30pm 10.8 8.8 10.0 95 0.4 WNW 11 15 6 8 1014.2 1014.0 0.0
25/08:00pm 11.5 9.2 10.4 93 0.6 NNW 13 15 7 8 1014.0 1013.8 0.0
25/07:30pm 11.4 9.4 10.3 93 0.6 NNW 11 13 6 7 1013.9 1013.7 0.0
25/07:00pm 11.3 9.4 10.4 94 0.5 NNW 11 13 6 7 1013.9 1013.7 0.0
25/06:30pm 11.8 10.0 10.7 93 0.6 NNW 11 11 6 6 1013.6 1013.4 0.0
25/06:00pm 13.1 11.5 11.7 91 0.8 WNW 11 15 6 8 1013.2 1012.9 0.0
25/05:30pm 13.6 11.8 12.0 90 0.9 W 13 17 7 9 1013.0 1012.7 0.0
25/05:00pm 13.4 9.8 11.8 90 0.9 W 22 32 12 17 1012.9 1012.6 0.0
25/04:30pm 15.3 11.4 10.9 75 2.4 WNW 22 28 12 15 1012.6 1012.3 0.0
25/04:00pm 15.9 12.8 11.7 76 2.3 WNW 19 22 10 12 1012.3 1012.0 0.0
25/03:30pm 16.0 13.3 11.8 76 2.3 NNW 17 20 9 11 1012.2 1011.9 0.0
25/03:00pm 16.3 14.7 11.5 73 2.6 NW 11 15 6 8 1012.1 1011.8 0.0
25/02:30pm 16.1 13.3 11.3 73 2.6 W 17 22 9 12 1012.0 1011.7 0.0
25/02:00pm 16.2 13.9 11.6 74 2.5 WNW 15 20 8 11 1011.9 1011.6 0.0
25/01:30pm 16.5 13.7 11.2 71 2.9 NNW 17 22 9 12 1011.8 1011.5 0.0
25/01:00pm 16.8 14.3 11.1 69 3.1 NNW 15 20 8 11 1011.9 1011.6 0.0
25/12:30pm 16.1 13.7 11.3 73 2.6 NW 15 22 8 12 1012.3 1012.0 0.0
25/12:00pm 15.2 11.8 10.6 74 2.5 NW 19 26 10 14 1012.6 1012.3 0.0
25/11:30am 15.2 12.2 10.6 74 2.5 NNW 17 22 9 12 1012.8 1012.5 0.0
25/11:00am 14.8 12.7 11.0 78 2.0 NW 13 20 7 11 1013.1 1012.8 0.0
25/10:30am 14.8 12.1 11.6 81 1.7 NW 17 20 9 11 1013.1 1012.8 0.0
25/10:00am 14.7 12.9 12.0 84 1.5 WNW 13 19 7 10 1013.2 1012.9 0.0
25/09:30am 13.7 11.8 11.8 88 1.0 WNW 13 17 7 9 1013.4 1013.2 0.0
25/09:00am 12.5 11.5 10.9 90 0.8 NNW 7 13 4 7 1013.2 1012.9 0.8
25/08:30am 11.4 10.9 10.9 97 0.3 NNW 4 7 2 4 1013.0 1012.7 0.8
25/08:00am 10.8 11.0 10.5 98 0.2 CALM 0 0 0 0 1013.0 1012.7 0.8
25/07:30am 10.6 10.7 10.3 98 0.2 CALM 0 0 0 0 1012.7 1012.4 0.8
25/07:00am 10.4 10.4 9.9 97 0.3 CALM 0 0 0 0 1012.4 1012.1 0.8
25/06:30am 10.2 9.4 9.7 97 0.3 N 4 6 2 3 1012.1 1011.8 0.8
25/06:00am 10.5 10.6 10.0 97 0.3 CALM 0 0 0 0 1011.8 1011.5 0.8
25/05:30am 10.1 10.0 9.6 97 0.3 CALM 0 0 0 0 1011.7 1011.4 0.8
25/05:00am 10.5 9.2 10.0 97 0.3 WSW 7 9 4 5 1011.7 1011.4 0.8
25/04:30am 10.9 9.4 10.4 97 0.3 NNW 9 11 5 6 1011.6 1011.3 0.8
25/04:00am 10.4 8.3 9.9 97 0.3 NW 11 11 6 6 1011.5 1011.2 0.8
25/03:30am 10.7 10.8 10.2 97 0.3 CALM 0 0 0 0 1011.4 1011.1 0.8
25/03:00am 10.7 9.5 10.2 97 0.3 NNE 7 11 4 6 1011.5 1011.2 0.8
25/02:30am 10.5 9.4 9.9 96 0.3 NNW 6 7 3 4 1011.4 1011.1 0.8
25/02:00am 11.2 9.7 10.6 96 0.3 W 9 13 5 7 1011.6 1011.3 0.6
25/01:30am 11.5 9.4 11.0 97 0.3 WSW 13 20 7 11 1011.7 1011.4 0.4
25/01:00am 11.3 11.5 10.7 96 0.3 CALM 0 0 0 0 1011.4 1011.1 0.4
25/12:30am 11.3 11.1 10.5 95 0.4 N 2 7 1 4 1011.4 1011.1 0.4
25/12:00am 11.6 10.2 10.8 95 0.4 N 9 13 5 7 1011.5 1011.2 0.4
 
Date/Time
WST
Temp
°C
App
Temp
°C
Dew
Point
Rel
Hum
%
Delta-T
°C
Wind Press
QNH
hPa
Press
MSL
hPa
Rain
since 9 am
mm
Dir
 
Spd
km/h
Gust
km/h
Spd
kts
Gust
kts
24/11:30pm 11.6 9.4 10.7 94 0.5 WNW 13 17 7 9 1011.6 1011.3 0.4
24/11:00pm 11.4 9.5 10.5 94 0.5 NNW 11 17 6 9 1011.7 1011.4 0.4
24/10:30pm 10.8 9.5 10.0 95 0.4 W 7 9 4 5 1011.7 1011.4 0.4
24/10:00pm 10.1 8.8 9.2 94 0.5 NNW 6 7 3 4 1011.6 1011.3 0.4
24/09:30pm 10.6 9.4 9.4 92 0.6 WNW 6 7 3 4 1011.5 1011.2 0.4
24/09:00pm 11.8 10.1 10.0 89 0.9 W 9 9 5 5 1011.5 1011.2 0.4
24/08:30pm 12.5 12.7 10.6 88 1.0 CALM 0 6 0 3 1011.5 1011.2 0.4
24/08:00pm 12.8 11.3 10.7 87 1.1 W 9 11 5 6 1011.4 1011.1 0.4
24/07:30pm 13.4 11.0 10.2 81 1.7 WSW 13 15 7 8 1011.1 1010.8 0.4
24/07:00pm 14.0 11.2 10.0 77 2.1 WSW 15 20 8 11 1010.9 1010.6 0.4
24/06:30pm 14.1 11.1 10.7 80 1.8 WSW 17 19 9 10 1010.5 1010.2 0.4
24/06:00pm 14.0 12.1 10.6 80 1.8 WNW 11 15 6 8 1010.1 1009.8 0.4
24/05:30pm 14.4 12.0 10.2 76 2.2 W 13 15 7 8 1009.4 1009.1 0.4
24/05:00pm 14.9 12.1 9.9 72 2.6 W 15 17 8 9 1009.0 1008.7 0.4
24/04:30pm 16.2 12.2 9.2 63 3.7 W 20 28 11 15 1008.7 1008.4 0.4
24/04:00pm 16.4 11.3 9.1 62 3.8 W 26 33 14 18 1008.4 1008.1 0.4
24/03:30pm 17.6 12.7 9.8 60 4.2 WSW 26 32 14 17 1008.1 1007.8 0.4
24/03:00pm 17.0 12.2 8.9 59 4.2 W 24 33 13 18 1007.8 1007.5 0.4
24/02:30pm 18.1 11.9 10.2 60 4.3 W 33 44 18 24 1007.4 1007.1 0.4
24/02:12pm 18.0 12.2 10.9 63 3.9 W 32 50 17 27 1007.2 1006.9 0.4
24/02:00pm 18.1 12.3 11.4 65 3.7 W 33 43 18 23 1007.1 1006.8 0.4
24/01:30pm 17.7 11.4 11.0 65 3.7 WSW 35 48 19 26 1007.4 1007.1 0.4
24/01:00pm 17.3 10.7 11.3 68 3.3 WSW 37 46 20 25 1007.3 1007.0 0.4
24/12:30pm 17.5 12.9 12.4 72 2.9 WSW 28 39 15 21 1007.0 1006.7 0.4
24/12:00pm 17.3 14.5 14.2 82 1.8 WSW 22 28 12 15 1007.3 1007.0 0.4
24/11:30am 16.7 13.3 13.6 82 1.8 WSW 24 33 13 18 1007.6 1007.3 0.4
24/11:00am 16.8 13.5 14.1 84 1.6 W 24 30 13 16 1007.8 1007.5 0.4
24/10:30am 16.4 12.8 14.2 87 1.3 W 26 35 14 19 1007.7 1007.4 0.2
24/10:00am 15.2 11.6 14.1 93 0.6 WSW 26 35 14 19 1007.5 1007.2 0.2
24/09:30am 15.9 13.9 15.4 97 0.3 SW 20 30 11 16 1007.1 1006.8 0.2
24/09:00am 15.7 12.9 15.4 98 0.2 WSW 24 32 13 17 1006.6 1006.3 7.6
24/08:30am 15.9 12.8 15.6 98 0.2 WSW 26 35 14 19 1006.0 1005.7 7.0
24/08:00am 15.9 11.5 15.6 98 0.2 WNW 33 44 18 24 1004.9 1004.5 6.2
24/07:44am 15.6 11.0 15.1 97 0.3 NW 33 46 18 25 1004.6 1004.3 3.8
24/07:30am 15.8 10.1 15.2 96 0.4 NNW 39 56 21 30 1003.7 1003.4 2.8
24/07:00am 15.9 9.7 14.8 93 0.6 NNW 41 54 22 29 1003.0 1002.7 2.8
24/06:30am 15.8 9.5 14.5 92 0.7 NNW 41 56 22 30 1002.8 1002.5 2.8
24/06:12am 15.9 9.2 14.6 92 0.8 NNW 43 61 23 33 1002.8 1002.5 2.8
24/06:00am 16.2 8.9 14.4 89 1.0 NNW 46 63 25 34 1002.9 1002.6 2.8
24/05:44am 15.7 10.0 14.2 91 0.9 NNW 37 56 20 30 1003.0 1002.7 2.8
24/05:30am 15.1 9.7 13.8 92 0.7 NNW 35 44 19 24 1003.0 1002.7 2.8
24/05:00am 14.2 9.4 12.9 92 0.7 N 30 39 16 21 1003.4 1003.1 2.8
24/04:30am 14.1 9.2 12.5 90 0.9 N 30 41 16 22 1004.3 1004.0 2.6
24/04:00am 13.4 9.6 12.3 93 0.6 N 24 35 13 19 1005.3 1004.9 2.4
24/03:30am 13.6 10.4 11.8 89 1.0 NNW 20 26 11 14 1006.4 1006.1 0.8
24/03:00am 13.8 10.2 11.7 87 1.1 NNW 22 28 12 15 1006.7 1006.4 0.6
24/02:30am 13.9 10.5 11.1 83 1.5 N 20 26 11 14 1006.4 1006.1 0.4
24/02:00am 14.1 10.5 10.7 80 1.8 NNW 20 30 11 16 1006.4 1006.1 0.2
24/01:30am 14.2 9.4 10.2 77 2.1 NNW 26 35 14 19 1007.3 1007.0 0.0
24/01:00am 15.0 9.9 9.1 68 3.1 NNW 26 33 14 18 1007.5 1007.2 0.0
24/12:30am 15.1 10.7 8.8 66 3.2 NNW 22 33 12 18 1007.8 1007.5 0.0
24/12:00am 15.1 9.8 8.3 64 3.5 NNW 26 33 14 18 1008.1 1007.8 0.0
 
Date/Time
WST
Temp
°C
App
Temp
°C
Dew
Point
Rel
Hum
%
Delta-T
°C
Wind Press
QNH
hPa
Press
MSL
hPa
Rain
since 9 am
mm
Dir
 
Spd
km/h
Gust
km/h
Spd
kts
Gust
kts
23/11:30pm 15.1 10.2 8.3 64 3.5 N 24 33 13 18 1008.4 1008.1 0.0
23/11:00pm 15.1 9.8 8.3 64 3.5 N 26 33 14 18 1008.9 1008.6 0.0

Other Formats:

Comma delimited format used in spreadsheet applications
http://www.bom.gov.au/fwo/IDW60801/IDW60801.95625.axf

JavaScript Object Notation format (JSON) in row-major order
http://www.bom.gov.au/fwo/IDW60801/IDW60801.95625.json